createdAt,value
2018-03-16T00:00:04.854Z,96116.69
2018-03-16T00:01:08.975Z,96036.67
2018-03-16T00:02:13.157Z,96118.08
2018-03-16T00:03:17.309Z,96130.41
2018-03-16T00:04:21.727Z,96040.14
2018-03-16T00:05:25.801Z,96127.27
2018-03-16T00:06:29.903Z,96124.66
2018-03-16T00:07:34.014Z,96128.70
2018-03-16T00:08:38.108Z,96129.55
2018-03-16T00:09:42.199Z,96129.45
2018-03-16T00:10:46.664Z,96130.58
2018-03-16T00:11:50.779Z,96034.84
2018-03-16T00:12:54.947Z,96186.83
2018-03-16T00:13:59.068Z,96127.98
2018-03-16T00:15:03.246Z,96131.17
2018-03-16T00:16:07.418Z,96128.52
2018-03-16T00:17:11.794Z,96129.78
2018-03-16T00:18:15.955Z,96135.11
2018-03-16T00:19:20.014Z,96138.75
2018-03-16T00:20:24.216Z,96134.02
2018-03-16T00:21:28.231Z,96139.42
2018-03-16T00:22:32.360Z,96133.49
2018-03-16T00:23:36.515Z,96140.14
2018-03-16T00:24:40.626Z,96127.08
2018-03-16T00:25:44.770Z,96136.09
2018-03-16T00:26:49.004Z,96130.03
2018-03-16T00:27:53.140Z,96130.52
2018-03-16T00:28:57.358Z,96129.08
2018-03-16T00:30:01.943Z,96130.89
2018-03-16T00:31:06.268Z,96009.65
2018-03-16T00:32:10.573Z,96041.78
2018-03-16T00:33:14.822Z,96074.27
2018-03-16T00:34:18.977Z,96122.72
2018-03-16T00:35:23.252Z,96127.55
2018-03-16T00:36:28.015Z,96126.70
2018-03-16T00:37:32.280Z,96130.27
2018-03-16T00:38:36.476Z,96125.52
2018-03-16T00:39:40.647Z,95973.12
2018-03-16T00:40:44.955Z,96129.78
2018-03-16T00:41:49.223Z,96124.78
2018-03-16T00:42:53.928Z,96035.00
2018-03-16T00:43:58.078Z,96127.98
2018-03-16T00:45:02.235Z,96132.34
2018-03-16T00:46:06.431Z,96125.80
2018-03-16T00:47:10.615Z,96130.27
2018-03-16T00:48:14.799Z,96124.78
2018-03-16T00:49:19.499Z,96122.13
2018-03-16T00:50:23.719Z,96124.05
2018-03-16T00:51:27.961Z,96123.84
2018-03-16T00:52:32.153Z,96083.25
2018-03-16T00:53:36.295Z,96116.67
2018-03-16T00:54:40.451Z,96115.11
2018-03-16T00:55:44.951Z,96116.27
2018-03-16T00:56:49.298Z,96116.69
2018-03-16T00:57:53.555Z,96006.45
2018-03-16T00:58:57.770Z,96120.91
2018-03-16T01:00:02.076Z,96120.85
2018-03-16T01:01:06.297Z,96129.05
2018-03-16T01:02:10.915Z,96048.52
2018-03-16T01:03:15.202Z,96132.19
2018-03-16T01:04:19.725Z,96130.86
2018-03-16T01:05:24.108Z,96132.39
2018-03-16T01:06:28.440Z,96140.36
2018-03-16T01:07:32.589Z,95979.83
2018-03-16T01:08:37.229Z,96130.44
2018-03-16T01:09:41.412Z,96132.67
2018-03-16T01:10:45.652Z,96021.25
2018-03-16T01:11:50.003Z,96128.34
2018-03-16T01:12:54.451Z,96129.11
2018-03-16T01:13:58.699Z,96132.67
2018-03-16T01:15:03.528Z,96134.85
2018-03-16T01:16:08.014Z,96041.39
2018-03-16T01:17:12.362Z,96133.66
2018-03-16T01:18:16.659Z,96131.34
2018-03-16T01:19:20.681Z,96126.03
2018-03-16T01:20:26.178Z,96121.84
2018-03-16T01:21:30.490Z,96126.83
2018-03-16T01:22:34.750Z,96123.80
2018-03-16T01:23:39.071Z,96122.89
2018-03-16T01:24:43.553Z,96120.23
2018-03-16T01:25:47.754Z,96122.64
2018-03-16T01:26:52.097Z,96122.64
2018-03-16T01:27:56.810Z,96121.36
2018-03-16T01:29:00.987Z,96120.71
2018-03-16T01:30:05.540Z,96155.89
2018-03-16T01:31:09.755Z,96089.47
2018-03-16T01:32:14.145Z,96126.51
2018-03-16T01:33:18.490Z,96125.97
2018-03-16T01:34:23.220Z,96072.06
2018-03-16T01:35:27.738Z,96125.07
2018-03-16T01:36:32.136Z,96133.47
2018-03-16T01:37:36.465Z,96158.97
2018-03-16T01:38:40.760Z,96125.07
2018-03-16T01:39:45.188Z,96060.30
2018-03-16T01:40:49.820Z,96123.17
2018-03-16T01:41:54.217Z,96121.98
2018-03-16T01:42:58.403Z,96121.84
2018-03-16T01:44:02.582Z,96096.39
2018-03-16T01:45:07.126Z,96122.78
2018-03-16T01:46:11.656Z,96126.77
2018-03-16T01:47:16.443Z,96123.26
2018-03-16T01:48:20.522Z,96131.29
2018-03-16T01:49:25.163Z,96126.88
2018-03-16T01:50:29.559Z,96130.44
2018-03-16T01:51:33.836Z,96094.78
2018-03-16T01:52:38.253Z,96130.92
2018-03-16T01:53:43.035Z,96127.67
2018-03-16T01:54:47.192Z,96131.75
2018-03-16T01:55:51.582Z,96100.11
2018-03-16T01:56:55.773Z,96099.91
2018-03-16T01:58:00.058Z,96127.53
2018-03-16T01:59:04.482Z,96133.55
2018-03-16T02:00:09.038Z,96132.73
2018-03-16T02:01:13.439Z,96126.25
2018-03-16T02:02:17.728Z,96134.60
2018-03-16T02:03:22.097Z,96130.98
2018-03-16T02:04:26.593Z,96126.91
2018-03-16T02:05:30.847Z,96074.59
2018-03-16T02:06:35.755Z,96130.42
2018-03-16T02:07:39.960Z,96065.80
2018-03-16T02:08:44.091Z,96127.76
2018-03-16T02:09:48.348Z,96125.89
2018-03-16T02:10:52.875Z,96100.96
2018-03-16T02:11:57.316Z,96039.52
2018-03-16T02:13:01.767Z,96134.10
2018-03-16T02:14:06.149Z,96135.54
2018-03-16T02:15:10.886Z,96133.73
2018-03-16T02:16:15.305Z,95932.33
2018-03-16T02:17:19.882Z,96136.39
2018-03-16T02:18:24.514Z,96128.23
2018-03-16T02:19:29.314Z,96135.43
2018-03-16T02:20:33.574Z,96035.95
2018-03-16T02:21:37.965Z,96141.23
2018-03-16T02:22:42.296Z,96117.58
2018-03-16T02:23:46.698Z,96019.46
2018-03-16T02:24:50.797Z,96130.64
2018-03-16T02:25:55.294Z,96139.05
2018-03-16T02:26:59.570Z,96128.89
2018-03-16T02:28:03.924Z,96129.13
2018-03-16T02:29:08.083Z,96136.28
2018-03-16T02:30:13.645Z,96063.67
2018-03-16T02:31:17.871Z,96136.76
2018-03-16T02:32:22.724Z,96127.11
2018-03-16T02:33:27.023Z,96140.60
2018-03-16T02:34:31.351Z,96136.28
2018-03-16T02:35:35.492Z,96141.88
2018-03-16T02:36:39.474Z,96140.32
2018-03-16T02:37:43.526Z,96100.53
2018-03-16T02:38:48.408Z,96101.81
2018-03-16T02:39:52.871Z,96139.27
2018-03-16T02:40:57.008Z,96142.08
2018-03-16T02:42:00.942Z,96124.09
2018-03-16T02:43:05.066Z,96136.98
2018-03-16T02:44:09.613Z,96137.89
2018-03-16T02:45:14.183Z,96132.80
2018-03-16T02:46:18.365Z,96134.70
2018-03-16T02:47:22.693Z,96136.56
2018-03-16T02:48:26.922Z,96140.55
2018-03-16T02:49:31.041Z,96142.84
2018-03-16T02:50:35.764Z,96138.94
2018-03-16T02:51:40.470Z,96140.97
2018-03-16T02:52:44.842Z,96134.80
2018-03-16T02:53:49.274Z,96132.57
2018-03-16T02:54:53.367Z,96138.27
2018-03-16T02:55:57.584Z,96137.84
2018-03-16T02:57:01.690Z,96128.98
2018-03-16T02:58:06.486Z,96134.30
2018-03-16T02:59:11.098Z,96137.66
2018-03-16T03:00:15.146Z,96141.40
2018-03-16T03:01:19.322Z,96140.07
2018-03-16T03:02:23.660Z,96070.48
2018-03-16T03:03:27.530Z,95627.47
2018-03-16T03:04:32.145Z,96101.90
2018-03-16T03:05:36.157Z,96135.77
2018-03-16T03:06:40.251Z,96074.50
2018-03-16T03:07:44.050Z,95861.78
2018-03-16T03:08:48.148Z,96141.73
2018-03-16T03:09:51.999Z,96132.38
2018-03-16T03:10:56.390Z,96134.19
2018-03-16T03:12:00.349Z,96141.69
2018-03-16T03:13:04.762Z,96072.33
2018-03-16T03:14:08.848Z,96137.41
2018-03-16T03:15:13.248Z,96136.14
2018-03-16T03:16:17.443Z,96128.13
2018-03-16T03:17:22.048Z,96136.62
2018-03-16T03:18:26.284Z,96136.51
2018-03-16T03:19:30.359Z,96143.02
2018-03-16T03:20:34.364Z,96146.66
2018-03-16T03:21:38.604Z,96140.78
2018-03-16T03:22:42.721Z,96082.38
2018-03-16T03:23:47.475Z,96145.33
2018-03-16T03:24:51.452Z,96112.91
2018-03-16T03:25:55.435Z,96148.81
2018-03-16T03:26:59.465Z,96146.72
2018-03-16T03:28:03.253Z,96150.70
2018-03-16T03:29:07.218Z,96154.27
2018-03-16T03:30:11.466Z,96152.32
2018-03-16T03:31:15.582Z,96149.97
2018-03-16T03:32:19.980Z,96147.88
2018-03-16T03:33:24.166Z,96153.70
2018-03-16T03:34:28.442Z,96134.88
2018-03-16T03:35:32.420Z,96160.24
2018-03-16T03:36:36.714Z,96164.77
2018-03-16T03:37:40.488Z,96199.91
2018-03-16T03:38:44.441Z,96164.11
2018-03-16T03:39:48.337Z,96165.09
2018-03-16T03:40:52.374Z,96161.45
2018-03-16T03:41:56.607Z,96163.09
2018-03-16T03:43:01.083Z,96158.28
2018-03-16T03:44:05.129Z,96164.53
2018-03-16T03:45:09.029Z,96164.42
2018-03-16T03:46:13.193Z,96165.56
2018-03-16T03:47:17.160Z,96170.40
2018-03-16T03:48:21.005Z,96170.93
2018-03-16T03:49:25.743Z,96169.49
2018-03-16T03:50:29.831Z,96172.06
2018-03-16T03:51:33.849Z,96167.66
2018-03-16T03:52:37.758Z,96173.53
2018-03-16T03:53:41.784Z,96169.60
2018-03-16T03:54:45.894Z,96052.36
2018-03-16T03:55:50.679Z,96174.44
2018-03-16T03:56:54.694Z,96176.81
2018-03-16T03:57:58.787Z,96172.26
2018-03-16T03:59:02.740Z,96142.80
2018-03-16T04:00:07.026Z,96175.63
2018-03-16T04:01:11.443Z,96124.56
2018-03-16T04:02:16.094Z,96177.16
2018-03-16T04:03:20.491Z,96178.06
2018-03-16T04:04:24.531Z,96144.83
2018-03-16T04:05:28.432Z,96174.38
2018-03-16T04:06:32.341Z,96184.45
2018-03-16T04:07:36.491Z,96181.99
2018-03-16T04:08:40.885Z,96174.02
2018-03-16T04:09:44.606Z,96182.41
2018-03-16T04:10:48.510Z,96180.23
2018-03-16T04:11:52.307Z,96179.62
2018-03-16T04:12:56.413Z,96182.22
2018-03-16T04:14:00.759Z,96181.45
2018-03-16T04:15:05.175Z,96184.12
2018-03-16T04:16:09.194Z,96177.09
2018-03-16T04:17:13.248Z,96176.62
2018-03-16T04:18:17.530Z,96182.78
2018-03-16T04:19:21.560Z,96184.59
2018-03-16T04:20:25.552Z,96120.65
2018-03-16T04:21:30.188Z,96183.75
2018-03-16T04:22:34.286Z,96189.97
2018-03-16T04:23:38.287Z,96097.33
2018-03-16T04:24:42.621Z,96188.39
2018-03-16T04:25:46.948Z,96140.62
2018-03-16T04:26:51.224Z,96098.47
2018-03-16T04:27:56.076Z,96192.20
2018-03-16T04:29:00.000Z,96191.78
2018-03-16T04:30:03.864Z,96194.58
2018-03-16T04:31:08.112Z,96196.24
2018-03-16T04:32:11.929Z,96189.77
2018-03-16T04:33:15.733Z,96195.57
2018-03-16T04:34:20.088Z,96193.48
2018-03-16T04:35:24.054Z,96200.07
2018-03-16T04:36:28.244Z,96197.47
2018-03-16T04:37:32.164Z,96163.27
2018-03-16T04:38:36.174Z,96195.18
2018-03-16T04:39:40.813Z,96196.98
2018-03-16T04:40:45.530Z,96200.41
2018-03-16T04:41:49.451Z,96197.33
2018-03-16T04:42:53.458Z,96197.70
2018-03-16T04:43:57.360Z,96199.45
2018-03-16T04:45:01.568Z,96174.11
2018-03-16T04:46:05.487Z,96197.50
2018-03-16T04:47:10.452Z,96199.82
2018-03-16T04:48:14.417Z,96161.94
2018-03-16T04:49:18.327Z,96204.48
2018-03-16T04:50:22.264Z,96203.97
2018-03-16T04:51:26.540Z,96202.22
2018-03-16T04:52:30.788Z,96204.87
2018-03-16T04:53:35.217Z,96209.23
2018-03-16T04:54:39.623Z,96200.66
2018-03-16T04:55:44.784Z,96205.95
2018-03-16T04:56:48.992Z,96209.95
2018-03-16T04:57:53.436Z,96217.16
2018-03-16T04:58:57.804Z,96203.83
2018-03-16T05:00:02.216Z,96146.48
2018-03-16T05:01:06.408Z,96215.94
2018-03-16T05:02:10.552Z,96183.86
2018-03-16T05:03:14.964Z,96140.64
2018-03-16T05:04:19.216Z,96214.08
2018-03-16T05:05:23.435Z,96213.28
2018-03-16T05:06:28.464Z,96207.92
2018-03-16T05:07:33.036Z,96214.19
2018-03-16T05:08:37.380Z,96185.02
2018-03-16T05:09:41.740Z,96265.23
2018-03-16T05:10:45.854Z,96269.51
2018-03-16T05:11:50.017Z,96213.05
2018-03-16T05:12:54.755Z,96208.81
2018-03-16T05:13:59.075Z,96209.23
2018-03-16T05:15:03.534Z,96210.85
2018-03-16T05:16:07.880Z,96206.09
2018-03-16T05:17:12.096Z,96213.83
2018-03-16T05:18:16.244Z,96209.04
2018-03-16T05:19:20.665Z,96210.99
2018-03-16T05:20:25.135Z,96209.12
2018-03-16T05:21:29.580Z,96211.17
2018-03-16T05:22:33.798Z,96216.91
2018-03-16T05:23:38.061Z,96187.72
2018-03-16T05:24:42.352Z,96214.25
2018-03-16T05:25:47.003Z,96213.41
2018-03-16T05:26:51.298Z,96214.84
2018-03-16T05:27:55.756Z,96210.03
2018-03-16T05:28:59.941Z,96218.49
2018-03-16T05:30:04.418Z,96222.81
2018-03-16T05:31:08.844Z,96220.67
2018-03-16T05:32:13.414Z,96175.29
2018-03-16T05:33:17.771Z,96130.75
2018-03-16T05:34:22.042Z,96221.34
2018-03-16T05:35:26.491Z,96224.15
2018-03-16T05:36:30.698Z,96104.55
2018-03-16T05:37:35.032Z,96198.59
2018-03-16T05:38:39.603Z,96225.14
2018-03-16T05:39:43.852Z,96229.75
2018-03-16T05:40:48.040Z,96226.09
2018-03-16T05:41:52.269Z,96165.45
2018-03-16T05:42:56.564Z,96225.19
2018-03-16T05:44:00.763Z,96225.76
2018-03-16T05:45:05.425Z,96149.72
2018-03-16T05:46:09.896Z,96225.25
2018-03-16T05:47:14.153Z,96226.58
2018-03-16T05:48:18.532Z,96234.08
2018-03-16T05:49:23.539Z,96230.98
2018-03-16T05:50:28.921Z,96298.75
2018-03-16T05:51:34.705Z,96230.09
2018-03-16T05:52:38.895Z,96227.98
2018-03-16T05:53:43.162Z,96227.42
2018-03-16T05:54:47.359Z,96230.03
2018-03-16T05:55:51.919Z,96224.82
2018-03-16T05:56:56.024Z,96231.08
2018-03-16T05:58:00.716Z,96229.66
2018-03-16T05:59:05.092Z,96227.42
2018-03-16T06:00:09.099Z,96231.47
2018-03-16T06:01:13.377Z,96231.36
2018-03-16T06:02:17.387Z,96202.04
2018-03-16T06:03:21.833Z,96231.41
2018-03-16T06:04:26.728Z,96237.05
2018-03-16T06:05:30.871Z,96229.55
2018-03-16T06:06:35.055Z,96234.73
2018-03-16T06:07:39.365Z,96232.78
2018-03-16T06:08:43.663Z,96229.53
2018-03-16T06:09:47.954Z,96230.19
2018-03-16T06:10:52.535Z,96229.20
2018-03-16T06:11:56.799Z,96229.57
2018-03-16T06:13:01.184Z,96334.25
2018-03-16T06:14:05.412Z,96233.08
2018-03-16T06:15:09.882Z,96321.75
2018-03-16T06:16:14.349Z,96238.11
2018-03-16T06:17:19.033Z,96231.86
2018-03-16T06:18:23.321Z,96233.70
2018-03-16T06:19:27.652Z,96030.61
2018-03-16T06:20:31.816Z,96236.52
2018-03-16T06:21:36.132Z,96236.36
2018-03-16T06:22:40.470Z,96241.00
2018-03-16T06:23:45.173Z,96243.66
2018-03-16T06:24:49.241Z,96238.77
2018-03-16T06:25:53.398Z,96243.23
2018-03-16T06:26:57.658Z,96246.33
2018-03-16T06:28:01.793Z,96249.27
2018-03-16T06:29:06.895Z,96248.73
2018-03-16T06:30:11.634Z,96247.80
2018-03-16T06:31:16.442Z,96251.39
2018-03-16T06:32:20.486Z,96251.73
2018-03-16T06:33:24.882Z,96267.73
2018-03-16T06:34:29.180Z,96257.42
2018-03-16T06:35:33.343Z,96256.63
2018-03-16T06:36:38.175Z,96116.42
2018-03-16T06:37:42.294Z,96259.72
2018-03-16T06:38:46.527Z,96253.97
2018-03-16T06:39:50.742Z,96262.03
2018-03-16T06:40:55.040Z,96256.72
2018-03-16T06:41:59.616Z,96258.38
2018-03-16T06:43:03.981Z,96258.95
2018-03-16T06:44:08.224Z,96257.07
2018-03-16T06:45:13.046Z,96191.19
2018-03-16T06:46:17.196Z,96259.09
2018-03-16T06:47:21.333Z,96266.48
2018-03-16T06:48:25.858Z,96326.24
2018-03-16T06:49:30.045Z,96261.02
2018-03-16T06:50:34.869Z,96268.16
2018-03-16T06:51:39.238Z,96274.80
2018-03-16T06:52:43.446Z,96269.91
2018-03-16T06:53:47.634Z,96196.95
2018-03-16T06:54:52.223Z,96278.73
2018-03-16T06:55:56.484Z,96280.50
2018-03-16T06:57:00.675Z,96277.41
2018-03-16T06:58:04.849Z,96021.31
2018-03-16T06:59:08.983Z,96281.03
2018-03-16T07:00:13.262Z,96276.65
2018-03-16T07:01:18.045Z,96282.45
2018-03-16T07:02:22.169Z,96282.45
2018-03-16T07:03:26.442Z,96214.91
2018-03-16T07:04:30.726Z,96287.29
2018-03-16T07:05:34.812Z,96281.97
2018-03-16T07:06:38.909Z,96286.92
2018-03-16T07:07:43.660Z,96283.83
2018-03-16T07:08:47.823Z,96289.44
2018-03-16T07:09:52.167Z,96288.19
2018-03-16T07:10:57.122Z,96184.53
2018-03-16T07:12:01.503Z,96252.27
2018-03-16T07:13:05.402Z,96286.01
2018-03-16T07:14:10.142Z,96285.95
2018-03-16T07:15:14.592Z,96290.77
2018-03-16T07:16:18.845Z,96289.86
2018-03-16T07:17:22.954Z,96190.98
2018-03-16T07:18:26.969Z,96291.62
2018-03-16T07:19:31.241Z,96294.84
2018-03-16T07:20:35.879Z,96293.94
2018-03-16T07:21:40.035Z,96293.00
2018-03-16T07:22:44.332Z,96298.41
2018-03-16T07:23:48.610Z,96294.75
2018-03-16T07:24:52.905Z,96293.42
2018-03-16T07:25:57.174Z,96297.92
2018-03-16T07:27:01.593Z,96296.88
2018-03-16T07:28:05.680Z,96302.68
2018-03-16T07:29:09.767Z,96303.08
2018-03-16T07:30:14.015Z,96297.57
2018-03-16T07:31:18.210Z,96187.64
2018-03-16T07:32:22.333Z,96302.08
2018-03-16T07:33:26.993Z,96297.41
2018-03-16T07:34:31.206Z,96306.19
2018-03-16T07:35:35.872Z,96306.95
2018-03-16T07:36:40.037Z,96232.75
2018-03-16T07:37:44.077Z,96207.33
2018-03-16T07:38:48.078Z,96315.71
2018-03-16T07:39:52.607Z,96088.20
2018-03-16T07:40:56.798Z,96314.56
2018-03-16T07:42:00.926Z,96312.90
2018-03-16T07:43:05.104Z,96315.08
2018-03-16T07:44:09.312Z,96282.17
2018-03-16T07:45:13.687Z,96316.27
2018-03-16T07:46:18.001Z,96318.16
2018-03-16T07:47:22.391Z,96317.73
2018-03-16T07:48:26.529Z,96317.88
2018-03-16T07:49:30.579Z,96321.78
2018-03-16T07:50:34.624Z,96323.11
2018-03-16T07:51:38.851Z,96210.59
2018-03-16T07:52:43.376Z,96325.66
2018-03-16T07:53:48.402Z,96324.16
2018-03-16T07:54:52.498Z,95923.89
2018-03-16T07:55:56.647Z,96327.72
2018-03-16T07:57:00.872Z,96327.86
2018-03-16T07:58:05.192Z,96328.57
2018-03-16T07:59:09.452Z,96327.19
2018-03-16T08:00:13.563Z,96329.91
2018-03-16T08:01:17.758Z,96070.81
2018-03-16T08:02:21.984Z,96332.42
2018-03-16T08:03:26.136Z,96335.45
2018-03-16T08:04:30.584Z,96334.18
2018-03-16T08:05:34.770Z,96294.38
2018-03-16T08:06:38.795Z,96335.45
2018-03-16T08:07:43.014Z,96332.74
2018-03-16T08:08:47.284Z,96336.36
2018-03-16T08:09:51.405Z,96335.51
2018-03-16T08:10:56.188Z,96333.22
2018-03-16T08:12:00.417Z,96301.61
2018-03-16T08:13:04.527Z,96336.31
2018-03-16T08:14:08.722Z,96338.06
2018-03-16T08:15:12.888Z,96440.24
2018-03-16T08:16:17.109Z,96337.63
2018-03-16T08:17:21.561Z,96342.80
2018-03-16T08:18:25.622Z,96342.61
2018-03-16T08:19:29.701Z,96347.11
2018-03-16T08:20:33.876Z,96341.28
2018-03-16T08:21:37.922Z,96345.59
2018-03-16T08:22:42.248Z,96345.27
2018-03-16T08:23:46.926Z,96343.47
2018-03-16T08:24:51.288Z,96344.80
2018-03-16T08:25:55.558Z,96346.27
2018-03-16T08:26:59.689Z,96354.11
2018-03-16T08:28:04.053Z,96346.60
2018-03-16T08:29:08.263Z,96122.16
2018-03-16T08:30:12.778Z,96350.11
2018-03-16T08:31:16.826Z,96349.35
2018-03-16T08:32:21.135Z,96173.78
2018-03-16T08:33:25.182Z,96249.16
2018-03-16T08:34:29.214Z,96353.81
2018-03-16T08:35:33.375Z,96359.20
2018-03-16T08:36:37.920Z,96361.39
2018-03-16T08:37:42.126Z,96361.33
2018-03-16T08:38:46.337Z,96356.49
2018-03-16T08:39:50.593Z,96109.20
2018-03-16T08:40:54.609Z,96358.11
2018-03-16T08:42:00.034Z,96366.04
2018-03-16T08:43:04.797Z,96363.80
2018-03-16T08:44:08.917Z,96366.04
2018-03-16T08:45:14.614Z,96328.41
2018-03-16T08:46:18.719Z,96360.29
2018-03-16T08:47:22.865Z,96363.00
2018-03-16T08:48:27.560Z,96066.33
2018-03-16T08:49:32.168Z,96364.77
2018-03-16T08:50:36.336Z,96362.48
2018-03-16T08:51:40.347Z,96361.65
2018-03-16T08:52:44.445Z,96360.13
2018-03-16T08:53:49.950Z,96361.20
2018-03-16T08:54:54.042Z,96303.03
2018-03-16T08:55:58.563Z,96224.80
2018-03-16T08:57:02.708Z,96331.73
2018-03-16T08:58:06.800Z,96364.27
2018-03-16T08:59:10.928Z,96368.13
2018-03-16T09:00:15.024Z,96365.35
2018-03-16T09:01:19.972Z,96368.73
2018-03-16T09:02:24.626Z,96369.95
2018-03-16T09:03:28.746Z,96366.27
2018-03-16T09:04:33.668Z,96364.64
2018-03-16T09:05:37.840Z,96367.59
2018-03-16T09:06:41.855Z,96368.20
2018-03-16T09:07:45.951Z,96367.63
2018-03-16T09:08:50.440Z,96369.52
2018-03-16T09:09:54.540Z,96368.96
2018-03-16T09:10:58.740Z,96369.05
2018-03-16T09:12:02.731Z,96366.44
2018-03-16T09:13:06.831Z,96364.55
2018-03-16T09:14:10.942Z,96368.05
2018-03-16T09:15:15.636Z,96356.97
2018-03-16T09:16:19.687Z,96363.62
2018-03-16T09:17:23.769Z,96364.47
2018-03-16T09:18:28.140Z,96111.36
2018-03-16T09:19:32.219Z,96361.45
2018-03-16T09:20:36.331Z,96370.30
2018-03-16T09:21:40.841Z,96366.78
2018-03-16T09:22:44.853Z,96295.42
2018-03-16T09:23:49.124Z,96372.10
2018-03-16T09:24:53.218Z,96364.97
2018-03-16T09:25:57.311Z,96372.52
2018-03-16T09:27:01.526Z,96473.17
2018-03-16T09:28:06.192Z,96369.84
2018-03-16T09:29:10.281Z,96366.78
2018-03-16T09:30:14.511Z,96373.03
2018-03-16T09:31:18.648Z,96313.66
2018-03-16T09:32:22.844Z,96191.42
2018-03-16T09:33:26.807Z,96379.80
2018-03-16T09:34:31.355Z,96384.21
2018-03-16T09:35:35.622Z,96381.55
2018-03-16T09:36:39.748Z,96385.92
2018-03-16T09:37:43.817Z,96276.32
2018-03-16T09:38:47.921Z,96271.35
2018-03-16T09:39:51.979Z,96341.83
2018-03-16T09:40:56.401Z,96346.22
2018-03-16T09:42:00.444Z,96384.27
2018-03-16T09:43:04.523Z,96319.64
2018-03-16T09:44:08.603Z,96343.45
2018-03-16T09:45:12.814Z,96312.34
2018-03-16T09:46:16.897Z,96348.28
2018-03-16T09:47:21.268Z,96347.02
2018-03-16T09:48:25.376Z,96387.34
2018-03-16T09:49:29.550Z,96349.67
2018-03-16T09:50:33.709Z,96434.30
2018-03-16T09:51:37.764Z,96424.13
2018-03-16T09:52:41.947Z,96323.11
2018-03-16T09:53:46.293Z,96345.62
2018-03-16T09:54:50.449Z,96343.08
2018-03-16T09:55:54.596Z,96272.68
2018-03-16T09:56:58.802Z,96389.91
2018-03-16T09:58:02.925Z,96363.42
2018-03-16T09:59:07.344Z,96473.41
2018-03-16T10:00:12.083Z,96379.31
2018-03-16T10:01:16.226Z,96384.16
2018-03-16T10:02:20.367Z,96385.92
2018-03-16T10:03:24.540Z,96385.49
2018-03-16T10:04:28.703Z,96388.06
2018-03-16T10:05:32.847Z,96382.75
2018-03-16T10:06:37.321Z,96274.33
2018-03-16T10:07:41.375Z,96352.62
2018-03-16T10:08:45.503Z,96242.05
2018-03-16T10:09:49.637Z,96282.59
2018-03-16T10:10:53.703Z,96389.53
2018-03-16T10:11:57.893Z,96308.59
2018-03-16T10:13:02.332Z,96351.91
2018-03-16T10:14:06.556Z,96272.25
2018-03-16T10:15:10.686Z,96351.19
2018-03-16T10:16:14.822Z,96315.19
2018-03-16T10:17:18.935Z,96355.27
2018-03-16T10:18:22.958Z,96425.17
2018-03-16T10:19:27.308Z,96351.96
2018-03-16T10:20:31.447Z,96526.28
2018-03-16T10:21:35.528Z,96393.30
2018-03-16T10:22:39.626Z,96390.63
2018-03-16T10:23:43.694Z,96165.58
2018-03-16T10:24:47.837Z,96249.17
2018-03-16T10:25:52.181Z,96185.39
2018-03-16T10:26:56.456Z,96402.13
2018-03-16T10:28:00.475Z,96313.19
2018-03-16T10:29:04.772Z,96396.33
2018-03-16T10:30:08.816Z,96328.14
2018-03-16T10:31:12.917Z,96409.14
2018-03-16T10:32:17.419Z,96401.22
2018-03-16T10:33:21.578Z,96454.49
2018-03-16T10:34:25.605Z,96326.39
2018-03-16T10:35:29.586Z,96299.58
2018-03-16T10:36:33.674Z,96405.64
2018-03-16T10:37:37.634Z,96371.20
2018-03-16T10:38:42.014Z,96410.11
2018-03-16T10:39:46.075Z,96303.03
2018-03-16T10:40:50.001Z,96264.16
2018-03-16T10:41:53.941Z,96370.05
2018-03-16T10:42:57.865Z,96447.66
2018-03-16T10:44:01.907Z,96412.58
2018-03-16T10:45:05.903Z,96413.00
2018-03-16T10:46:09.830Z,96410.87
2018-03-16T10:47:13.790Z,96336.94
2018-03-16T10:48:17.846Z,96412.63
2018-03-16T10:49:22.057Z,96415.24
2018-03-16T10:50:26.565Z,96347.41
2018-03-16T10:51:30.439Z,96426.79
2018-03-16T10:52:34.512Z,96422.84
2018-03-16T10:53:38.587Z,96416.28
2018-03-16T10:54:42.589Z,96423.04
2018-03-16T10:55:46.576Z,96360.95
2018-03-16T10:56:51.034Z,96427.51
2018-03-16T10:57:55.188Z,96427.03
2018-03-16T10:58:59.200Z,96353.14
2018-03-16T11:00:03.243Z,96393.19
2018-03-16T11:01:11.136Z,96390.95
2018-03-16T11:02:19.166Z,96423.70
2018-03-16T11:03:23.396Z,96391.52
2018-03-16T11:04:30.288Z,96430.91
2018-03-16T11:05:38.270Z,96425.17
2018-03-16T11:06:46.107Z,96430.55
2018-03-16T11:07:54.145Z,96207.11
2018-03-16T11:08:58.292Z,96213.52
2018-03-16T11:10:02.308Z,96434.91
2018-03-16T11:11:06.292Z,96433.49
2018-03-16T11:12:10.308Z,96433.97
2018-03-16T11:13:14.402Z,96437.48
2018-03-16T11:14:18.654Z,96359.48
2018-03-16T11:15:22.685Z,96428.55
2018-03-16T11:16:26.781Z,96400.92
2018-03-16T11:17:30.809Z,96399.35
2018-03-16T11:18:34.768Z,96321.66
2018-03-16T11:19:38.811Z,96433.49
2018-03-16T11:20:43.189Z,96354.78
2018-03-16T11:21:47.191Z,96437.86
2018-03-16T11:22:51.137Z,96362.44
2018-03-16T11:23:55.255Z,96442.39
2018-03-16T11:24:59.289Z,96440.52
2018-03-16T11:26:03.289Z,96326.31
2018-03-16T11:27:07.644Z,96444.08
2018-03-16T11:28:11.614Z,96439.24
2018-03-16T11:29:15.580Z,96366.61
2018-03-16T11:30:19.711Z,96191.09
2018-03-16T11:31:23.620Z,96443.23
2018-03-16T11:32:27.594Z,96443.95
2018-03-16T11:33:32.279Z,96445.79
2018-03-16T11:34:36.437Z,96442.70
2018-03-16T11:35:40.360Z,96367.84
2018-03-16T11:36:44.239Z,96483.47
2018-03-16T11:37:49.156Z,96467.60
2018-03-16T11:38:53.094Z,96146.67
2018-03-16T11:39:57.445Z,96440.52
2018-03-16T11:41:01.511Z,96446.69
2018-03-16T11:42:05.468Z,96407.34
2018-03-16T11:43:09.514Z,96182.62
2018-03-16T11:44:13.485Z,96442.28
2018-03-16T11:45:17.617Z,96443.23
2018-03-16T11:46:22.361Z,96440.04
2018-03-16T11:47:26.249Z,96375.91
2018-03-16T11:48:30.225Z,96443.95
2018-03-16T11:49:34.249Z,96420.09
2018-03-16T11:50:38.417Z,96442.22
2018-03-16T11:51:42.489Z,96451.88
2018-03-16T11:52:47.083Z,96378.95
2018-03-16T11:53:51.739Z,96443.61
2018-03-16T11:54:56.800Z,96445.36
2018-03-16T11:56:00.710Z,96444.98
2018-03-16T11:57:04.657Z,96445.89
2018-03-16T11:58:09.845Z,96444.56
2018-03-16T11:59:13.668Z,96411.33
2018-03-16T12:00:17.568Z,96345.41
2018-03-16T12:01:21.615Z,96418.03
2018-03-16T12:02:25.489Z,96409.05
2018-03-16T12:03:32.701Z,96444.03
2018-03-16T12:04:37.027Z,96410.66
2018-03-16T12:05:40.877Z,96408.56
2018-03-16T12:06:44.862Z,96412.61
2018-03-16T12:07:48.883Z,96454.30
2018-03-16T12:08:52.888Z,96387.34
2018-03-16T12:09:56.930Z,96453.69
2018-03-16T12:11:02.146Z,96450.59
2018-03-16T12:12:06.255Z,96455.02
2018-03-16T12:13:10.156Z,96231.62
2018-03-16T12:14:14.071Z,96457.25
2018-03-16T12:15:18.088Z,96461.19
2018-03-16T12:16:22.112Z,96458.58
2018-03-16T12:17:26.519Z,96458.11
2018-03-16T12:18:30.467Z,96455.10
2018-03-16T12:19:34.270Z,96459.91
2018-03-16T12:20:38.213Z,96454.54
2018-03-16T12:21:42.249Z,96458.52
2018-03-16T12:22:46.275Z,96386.20
2018-03-16T12:23:50.189Z,96454.54
2018-03-16T12:24:54.037Z,96457.66
2018-03-16T12:25:57.980Z,96461.17
2018-03-16T12:27:01.985Z,96455.00
2018-03-16T12:28:05.837Z,96414.22
2018-03-16T12:29:10.037Z,96381.05
2018-03-16T12:30:13.797Z,96391.34
2018-03-16T12:31:17.700Z,96461.67
2018-03-16T12:32:21.547Z,96428.38
2018-03-16T12:33:25.414Z,96455.42
2018-03-16T12:34:29.294Z,96424.09